createdAt,value
2023-04-27T00:01:00.793Z,20.13
2023-04-27T00:03:28.392Z,20.17
2023-04-27T00:05:55.318Z,26.35
2023-04-27T00:08:22.072Z,19.63
2023-04-27T00:10:48.536Z,16.20
2023-04-27T00:13:15.017Z,19.70
2023-04-27T00:15:41.577Z,19.60
2023-04-27T00:18:08.155Z,22.77
2023-04-27T00:20:34.748Z,20.70
2023-04-27T00:23:01.262Z,19.15
2023-04-27T00:25:27.840Z,20.23
2023-04-27T00:27:54.382Z,17.10
2023-04-27T00:30:20.887Z,15.32
2023-04-27T00:32:47.389Z,15.48
2023-04-27T00:35:13.891Z,16.98
2023-04-27T00:37:40.410Z,15.05
2023-04-27T00:40:07.990Z,14.65
2023-04-27T00:42:35.736Z,16.80
2023-04-27T00:45:03.385Z,16.08
2023-04-27T00:47:30.742Z,13.85
2023-04-27T00:49:57.393Z,16.42
2023-04-27T00:52:23.983Z,14.77
2023-04-27T00:54:51.910Z,14.93
2023-04-27T00:57:21.261Z,14.40
2023-04-27T00:59:47.807Z,12.63
2023-04-27T01:02:14.479Z,14.95
2023-04-27T01:04:41.599Z,14.40
2023-04-27T01:07:08.400Z,15.40
2023-04-27T01:09:34.869Z,17.23
2023-04-27T01:12:01.599Z,16.95
2023-04-27T01:14:28.054Z,15.07
2023-04-27T01:16:54.531Z,16.13
2023-04-27T01:19:22.661Z,16.50
2023-04-27T01:21:49.311Z,18.05
2023-04-27T01:24:16.679Z,15.63
2023-04-27T01:26:43.122Z,21.10
2023-04-27T01:29:09.594Z,16.27
2023-04-27T01:31:36.268Z,21.33
2023-04-27T01:34:02.781Z,20.83
2023-04-27T01:36:29.303Z,18.75
2023-04-27T01:38:55.760Z,13.50
2023-04-27T01:41:22.234Z,19.55
2023-04-27T01:43:48.720Z,17.98
2023-04-27T01:46:15.862Z,16.10
2023-04-27T01:48:43.290Z,18.50
2023-04-27T01:51:09.797Z,18.85
2023-04-27T01:53:36.362Z,17.50
2023-04-27T01:56:03.545Z,20.33
2023-04-27T01:58:30.062Z,16.80
2023-04-27T02:00:56.574Z,17.67
2023-04-27T02:03:23.202Z,19.30
2023-04-27T02:05:49.838Z,19.38
2023-04-27T02:08:16.558Z,16.55
2023-04-27T02:10:43.005Z,15.95
2023-04-27T02:13:09.828Z,16.58
2023-04-27T02:15:36.556Z,19.33
2023-04-27T02:18:03.906Z,16.50
2023-04-27T02:20:33.819Z,17.98
2023-04-27T02:23:01.012Z,18.83
2023-04-27T02:25:27.866Z,17.17
2023-04-27T02:27:54.900Z,19.17
2023-04-27T02:30:21.829Z,19.23
2023-04-27T02:32:48.844Z,16.42
2023-04-27T02:35:15.507Z,19.00
2023-04-27T02:37:41.955Z,22.40
2023-04-27T02:40:09.407Z,20.23
2023-04-27T02:42:38.143Z,20.95
2023-04-27T02:45:06.951Z,16.80
2023-04-27T02:47:33.594Z,20.13
2023-04-27T02:50:01.124Z,19.65
2023-04-27T02:52:27.826Z,20.48
2023-04-27T02:54:54.324Z,24.13
2023-04-27T02:57:20.828Z,19.05
2023-04-27T02:59:47.276Z,17.92
2023-04-27T03:02:13.837Z,18.48
2023-04-27T03:04:40.375Z,17.42
2023-04-27T03:07:06.878Z,19.98
2023-04-27T03:09:33.421Z,18.88
2023-04-27T03:11:59.939Z,19.08
2023-04-27T03:14:26.406Z,19.30
2023-04-27T03:16:53.349Z,18.63
2023-04-27T03:19:19.961Z,21.58
2023-04-27T03:21:46.418Z,21.55
2023-04-27T03:24:12.884Z,15.52
2023-04-27T03:26:39.325Z,17.42
2023-04-27T03:29:06.617Z,19.58
2023-04-27T03:31:33.280Z,18.23
2023-04-27T03:33:59.745Z,19.20
2023-04-27T03:36:27.066Z,22.55
2023-04-27T03:38:53.574Z,20.70
2023-04-27T03:41:20.005Z,20.45
2023-04-27T03:43:47.576Z,20.98
2023-04-27T03:46:14.124Z,17.48
2023-04-27T03:48:40.664Z,17.52
2023-04-27T03:51:07.566Z,20.60
2023-04-27T03:53:34.328Z,21.27
2023-04-27T03:56:02.362Z,16.73
2023-04-27T03:58:28.829Z,19.17
2023-04-27T04:00:57.164Z,20.65
2023-04-27T04:03:23.880Z,20.88
2023-04-27T04:05:50.552Z,22.02
2023-04-27T04:08:16.976Z,18.23
2023-04-27T04:10:43.436Z,23.92
2023-04-27T04:13:09.945Z,18.30
2023-04-27T04:15:36.466Z,16.75
2023-04-27T04:18:03.062Z,18.73
2023-04-27T04:20:35.368Z,18.52
2023-04-27T04:23:01.819Z,21.65
2023-04-27T04:25:28.276Z,21.25
2023-04-27T04:27:55.015Z,20.58
2023-04-27T04:30:23.174Z,18.58
2023-04-27T04:32:49.761Z,22.77
2023-04-27T04:35:19.565Z,19.77
2023-04-27T04:37:46.728Z,20.60
2023-04-27T04:40:13.979Z,21.02
2023-04-27T04:42:40.546Z,20.95
2023-04-27T04:45:07.516Z,20.77
2023-04-27T04:47:34.355Z,23.20
2023-04-27T04:50:01.182Z,22.48
2023-04-27T04:52:27.641Z,25.10
2023-04-27T04:54:54.148Z,25.30
2023-04-27T04:57:20.640Z,22.20
2023-04-27T04:59:47.064Z,19.95
2023-04-27T05:02:13.593Z,25.60
2023-04-27T05:04:40.150Z,20.90
2023-04-27T05:07:06.747Z,25.08
2023-04-27T05:09:33.359Z,22.85
2023-04-27T05:12:01.770Z,23.50
2023-04-27T05:14:28.245Z,23.25
2023-04-27T05:16:54.750Z,25.70
2023-04-27T05:19:21.470Z,21.50
2023-04-27T05:21:47.938Z,23.33
2023-04-27T05:24:14.587Z,24.50
2023-04-27T05:26:43.006Z,23.65
2023-04-27T05:29:09.528Z,22.67
2023-04-27T05:31:36.296Z,29.67
2023-04-27T05:34:02.852Z,26.58
2023-04-27T05:36:29.461Z,28.70
2023-04-27T05:38:56.201Z,25.48
2023-04-27T05:41:23.780Z,28.25
2023-04-27T05:43:50.320Z,28.58
2023-04-27T05:46:16.939Z,31.15
2023-04-27T05:48:43.549Z,27.83
2023-04-27T05:51:10.177Z,27.35
2023-04-27T05:53:36.672Z,26.92
2023-04-27T05:56:04.576Z,25.00
2023-04-27T05:58:31.240Z,33.05
2023-04-27T06:00:57.811Z,30.38
2023-04-27T06:03:24.642Z,28.35
2023-04-27T06:05:58.633Z,27.73
2023-04-27T06:08:26.043Z,27.83
2023-04-27T06:10:52.931Z,29.70
2023-04-27T06:13:20.358Z,25.10
2023-04-27T06:15:47.426Z,28.73
2023-04-27T06:18:14.375Z,24.38
2023-04-27T06:20:41.969Z,22.92
2023-04-27T06:23:08.772Z,22.15
2023-04-27T06:25:37.452Z,25.67
2023-04-27T06:28:04.006Z,23.92
2023-04-27T06:30:30.586Z,20.17
2023-04-27T06:32:57.118Z,20.90
2023-04-27T06:35:23.629Z,24.55
2023-04-27T06:37:50.171Z,19.30
2023-04-27T06:40:16.721Z,17.58
2023-04-27T06:42:43.212Z,19.55
2023-04-27T06:45:10.006Z,14.15
2023-04-27T06:47:36.457Z,20.80
2023-04-27T06:50:04.018Z,19.08
2023-04-27T06:52:33.162Z,19.13
2023-04-27T06:54:59.708Z,17.38
2023-04-27T06:57:26.409Z,18.17
2023-04-27T06:59:52.922Z,14.05
2023-04-27T07:02:19.443Z,17.65
2023-04-27T07:04:46.229Z,15.88
2023-04-27T07:07:13.262Z,12.82
2023-04-27T07:09:39.716Z,13.82
2023-04-27T07:12:06.566Z,12.90
2023-04-27T07:14:33.920Z,13.82
2023-04-27T07:17:00.603Z,12.68
2023-04-27T07:19:27.120Z,11.82
2023-04-27T07:21:53.708Z,18.15
2023-04-27T07:24:20.595Z,13.55
2023-04-27T07:26:48.081Z,13.18
2023-04-27T07:29:26.341Z,15.50
2023-04-27T07:31:55.699Z,13.45
2023-04-27T07:34:22.679Z,16.42
2023-04-27T07:36:49.191Z,12.88
2023-04-27T07:39:15.935Z,11.77
2023-04-27T07:41:42.917Z,12.82
2023-04-27T07:44:09.446Z,10.25
2023-04-27T07:46:35.912Z,13.27
2023-04-27T07:49:02.458Z,11.32
2023-04-27T07:51:29.312Z,15.68
2023-04-27T07:53:56.360Z,11.20
2023-04-27T07:56:22.897Z,8.52
2023-04-27T07:58:49.450Z,15.95
2023-04-27T08:01:16.641Z,10.32
2023-04-27T08:03:44.414Z,12.07
2023-04-27T08:06:11.480Z,13.48
2023-04-27T08:08:38.185Z,11.25
2023-04-27T08:11:04.700Z,14.77
2023-04-27T08:13:36.194Z,12.38
2023-04-27T08:16:03.072Z,9.88
2023-04-27T08:18:29.575Z,10.40
2023-04-27T08:20:56.084Z,11.82
2023-04-27T08:23:22.648Z,8.98
2023-04-27T08:25:49.120Z,13.82
2023-04-27T08:28:15.936Z,12.50
2023-04-27T08:30:42.809Z,11.93
2023-04-27T08:33:09.360Z,8.75
2023-04-27T08:35:36.079Z,10.50
2023-04-27T08:38:02.670Z,9.93
2023-04-27T08:40:29.537Z,11.23
2023-04-27T08:42:58.572Z,9.75
2023-04-27T08:45:26.505Z,8.70
2023-04-27T08:47:53.803Z,11.68
2023-04-27T08:50:20.458Z,11.25
2023-04-27T08:52:48.174Z,7.13
2023-04-27T08:55:16.638Z,7.15
2023-04-27T08:57:57.295Z,7.88
2023-04-27T09:00:26.627Z,7.00
2023-04-27T09:02:53.678Z,12.43
2023-04-27T09:05:22.703Z,6.80
2023-04-27T09:08:05.816Z,11.32
2023-04-27T09:10:44.602Z,14.40
2023-04-27T09:13:11.113Z,9.35
2023-04-27T09:15:48.425Z,12.20
2023-04-27T09:18:22.289Z,9.02
2023-04-27T09:20:50.674Z,5.95
2023-04-27T09:23:32.300Z,11.88
2023-04-27T09:26:01.080Z,9.88
2023-04-27T09:28:29.342Z,9.80
2023-04-27T09:30:57.503Z,10.25
2023-04-27T09:33:34.092Z,12.23
2023-04-27T09:36:03.202Z,12.32
2023-04-27T09:38:30.540Z,11.18
2023-04-27T09:40:57.606Z,11.18
2023-04-27T09:43:24.925Z,9.40
2023-04-27T09:45:51.680Z,9.82
2023-04-27T09:48:18.745Z,14.48
2023-04-27T09:50:46.158Z,9.10
2023-04-27T09:53:15.675Z,8.45
2023-04-27T09:55:56.140Z,9.77
2023-04-27T09:58:50.529Z,12.55
2023-04-27T10:01:42.285Z,9.68
2023-04-27T10:04:35.158Z,10.18
2023-04-27T10:07:08.324Z,9.10
2023-04-27T10:09:41.692Z,11.70
2023-04-27T10:12:26.883Z,10.60
2023-04-27T10:14:59.071Z,8.88
2023-04-27T10:17:36.470Z,9.35
2023-04-27T10:20:07.503Z,9.32
2023-04-27T10:22:45.274Z,8.57
2023-04-27T10:25:22.983Z,9.75
2023-04-27T10:28:01.158Z,9.93
2023-04-27T10:30:32.744Z,9.02
2023-04-27T10:33:05.184Z,8.38
2023-04-27T10:35:40.451Z,10.65
2023-04-27T10:38:21.828Z,9.18
2023-04-27T10:41:02.259Z,7.95
2023-04-27T10:43:31.289Z,9.07
2023-04-27T10:46:14.960Z,8.20
2023-04-27T10:48:43.415Z,8.70
2023-04-27T10:51:10.523Z,10.40
2023-04-27T10:53:37.996Z,11.93
2023-04-27T10:56:06.990Z,8.90
2023-04-27T10:58:45.334Z,3.90
2023-04-27T11:01:24.756Z,8.05
2023-04-27T11:03:58.937Z,12.38
2023-04-27T11:06:28.070Z,10.27
2023-04-27T11:08:54.957Z,12.90
2023-04-27T11:11:22.585Z,10.15
2023-04-27T11:13:50.501Z,10.68
2023-04-27T11:16:17.071Z,11.05
2023-04-27T11:18:43.666Z,9.10
2023-04-27T11:21:12.764Z,13.55
2023-04-27T11:23:40.070Z,9.32
2023-04-27T11:26:09.534Z,10.18
2023-04-27T11:28:36.266Z,11.02
2023-04-27T11:31:04.459Z,12.98
2023-04-27T11:33:31.302Z,11.60
2023-04-27T11:35:58.157Z,11.50
2023-04-27T11:38:25.242Z,11.35
2023-04-27T11:41:07.906Z,12.02
2023-04-27T11:43:35.129Z,11.02
2023-04-27T11:46:06.009Z,13.40
2023-04-27T11:48:32.682Z,10.93
2023-04-27T11:51:00.543Z,9.85
2023-04-27T11:53:38.226Z,10.15
2023-04-27T11:56:07.788Z,15.27
2023-04-27T11:58:36.202Z,12.25
2023-04-27T12:01:06.705Z,16.45
2023-04-27T12:03:33.810Z,10.13
2023-04-27T12:06:16.088Z,12.05
2023-04-27T12:08:47.474Z,13.07
2023-04-27T12:11:14.069Z,10.23
2023-04-27T12:13:40.750Z,10.82
2023-04-27T12:16:07.486Z,8.48
2023-04-27T12:18:34.100Z,10.00
2023-04-27T12:21:03.157Z,12.65
2023-04-27T12:23:30.181Z,10.60
2023-04-27T12:25:56.689Z,10.20
2023-04-27T12:28:23.424Z,7.90
2023-04-27T12:30:50.014Z,12.88
2023-04-27T12:33:16.907Z,9.88
2023-04-27T12:35:43.458Z,7.85
2023-04-27T12:38:09.963Z,11.32
2023-04-27T12:40:36.614Z,14.20
2023-04-27T12:43:03.094Z,11.95
2023-04-27T12:45:29.597Z,14.52
2023-04-27T12:48:03.454Z,5.90
2023-04-27T12:50:32.138Z,9.30
2023-04-27T12:52:59.048Z,10.00
2023-04-27T12:55:33.864Z,9.13
2023-04-27T12:58:01.541Z,8.23
2023-04-27T13:00:29.373Z,12.00
2023-04-27T13:02:56.585Z,14.00
2023-04-27T13:05:23.509Z,10.45
2023-04-27T13:07:50.146Z,13.65
2023-04-27T13:10:16.658Z,9.02
2023-04-27T13:12:43.280Z,13.43
2023-04-27T13:15:10.204Z,15.52
2023-04-27T13:17:36.749Z,13.75
2023-04-27T13:20:07.247Z,11.10
2023-04-27T13:22:33.719Z,9.75
2023-04-27T13:25:00.344Z,11.30
2023-04-27T13:27:28.454Z,5.88
2023-04-27T13:29:55.274Z,9.60
2023-04-27T13:32:22.315Z,10.75
2023-04-27T13:34:49.256Z,10.00
2023-04-27T13:37:16.571Z,9.55
2023-04-27T13:39:43.188Z,9.73
2023-04-27T13:42:09.853Z,10.60
2023-04-27T13:44:36.365Z,9.57
2023-04-27T13:47:03.114Z,11.95
2023-04-27T13:49:29.693Z,11.88
2023-04-27T13:51:56.342Z,12.75
2023-04-27T13:54:22.813Z,12.07
2023-04-27T13:56:49.328Z,12.35
2023-04-27T13:59:16.692Z,10.18
2023-04-27T14:01:43.477Z,13.48
2023-04-27T14:04:10.279Z,11.77
2023-04-27T14:06:36.846Z,10.80
2023-04-27T14:09:03.994Z,13.27
2023-04-27T14:11:30.553Z,12.85
2023-04-27T14:13:57.979Z,13.80
2023-04-27T14:16:24.634Z,11.07
2023-04-27T14:18:52.252Z,17.58
2023-04-27T14:21:18.889Z,14.32
2023-04-27T14:23:45.479Z,13.75
2023-04-27T14:26:12.178Z,9.90
2023-04-27T14:28:38.712Z,11.40
2023-04-27T14:31:05.235Z,15.73
2023-04-27T14:33:31.740Z,12.57
2023-04-27T14:35:58.303Z,12.38
2023-04-27T14:38:24.841Z,10.55
2023-04-27T14:40:51.316Z,12.65
2023-04-27T14:43:18.052Z,13.45
2023-04-27T14:45:51.553Z,10.90
2023-04-27T14:48:22.141Z,13.38
2023-04-27T14:50:48.804Z,13.35
2023-04-27T14:53:15.298Z,13.52
2023-04-27T14:55:43.819Z,13.63
2023-04-27T14:58:10.533Z,13.23
2023-04-27T15:00:37.108Z,13.63
2023-04-27T15:03:03.824Z,12.93
2023-04-27T15:05:30.443Z,15.82
2023-04-27T15:07:56.883Z,15.00
2023-04-27T15:10:23.326Z,13.77
2023-04-27T15:12:49.782Z,14.40
2023-04-27T15:15:16.299Z,13.45
2023-04-27T15:17:42.835Z,14.50
2023-04-27T15:20:10.795Z,17.70
2023-04-27T15:22:37.260Z,15.57
2023-04-27T15:25:03.982Z,14.50
2023-04-27T15:27:30.595Z,12.50
2023-04-27T15:29:58.165Z,12.27
2023-04-27T15:32:29.776Z,13.05
2023-04-27T15:34:57.873Z,13.50
2023-04-27T15:37:25.522Z,12.30
2023-04-27T15:39:52.003Z,14.55
2023-04-27T15:42:18.455Z,12.07
2023-04-27T15:44:44.918Z,12.38
2023-04-27T15:47:12.899Z,13.18
2023-04-27T15:49:53.470Z,13.80
2023-04-27T15:52:23.716Z,12.80
2023-04-27T15:54:50.178Z,14.25
2023-04-27T15:57:18.198Z,15.80
2023-04-27T15:59:44.701Z,13.02
2023-04-27T16:02:13.287Z,14.45
2023-04-27T16:04:39.884Z,14.00
2023-04-27T16:07:07.413Z,14.30
2023-04-27T16:09:40.123Z,12.07
2023-04-27T16:12:06.874Z,14.77
2023-04-27T16:14:33.394Z,14.68
2023-04-27T16:17:02.609Z,15.90
2023-04-27T16:19:29.787Z,15.65
2023-04-27T16:21:56.354Z,15.57
2023-04-27T16:24:22.902Z,13.13
2023-04-27T16:26:49.377Z,13.85
2023-04-27T16:29:16.178Z,13.77
2023-04-27T16:31:44.704Z,15.27
2023-04-27T16:34:11.200Z,15.20
2023-04-27T16:36:37.767Z,20.02
2023-04-27T16:39:05.078Z,17.30
2023-04-27T16:41:31.846Z,14.82
2023-04-27T16:43:58.353Z,14.77
2023-04-27T16:46:24.866Z,15.90
2023-04-27T16:48:51.566Z,15.10
2023-04-27T16:51:18.112Z,18.50
2023-04-27T16:53:44.568Z,13.68
2023-04-27T16:56:13.352Z,13.95
2023-04-27T16:58:41.003Z,15.82
2023-04-27T17:01:07.705Z,14.73
2023-04-27T17:03:35.975Z,19.20
2023-04-27T17:06:03.177Z,15.13
2023-04-27T17:08:29.765Z,14.85
2023-04-27T17:10:56.422Z,13.93
2023-04-27T17:13:22.942Z,15.48
2023-04-27T17:15:49.948Z,19.25
2023-04-27T17:18:22.441Z,17.67
2023-04-27T17:20:48.947Z,15.80
2023-04-27T17:23:15.584Z,18.63
2023-04-27T17:25:42.090Z,17.65
2023-04-27T17:28:09.037Z,19.58
2023-04-27T17:30:35.540Z,18.20
2023-04-27T17:33:03.131Z,19.95
2023-04-27T17:35:30.401Z,19.38
2023-04-27T17:37:56.916Z,21.63
2023-04-27T17:40:23.587Z,23.00
2023-04-27T17:42:50.432Z,16.42
2023-04-27T17:45:16.895Z,24.20
2023-04-27T17:47:43.425Z,16.30
2023-04-27T17:50:10.255Z,17.25
2023-04-27T17:52:36.782Z,20.98
2023-04-27T17:55:03.360Z,20.92
2023-04-27T17:57:29.853Z,22.10
2023-04-27T17:59:56.362Z,16.90
2023-04-27T18:02:23.170Z,19.50
2023-04-27T18:04:49.849Z,17.77
2023-04-27T18:07:18.549Z,18.15
2023-04-27T18:09:45.386Z,17.55
2023-04-27T18:12:12.008Z,18.17
2023-04-27T18:14:38.704Z,19.65
2023-04-27T18:17:05.456Z,16.10
2023-04-27T18:19:31.943Z,14.70
2023-04-27T18:21:58.432Z,23.60
2023-04-27T18:24:25.232Z,17.25
2023-04-27T18:26:51.989Z,16.95
2023-04-27T18:29:18.580Z,17.73
2023-04-27T18:31:45.662Z,17.75
2023-04-27T18:34:12.296Z,17.23
2023-04-27T18:36:38.743Z,16.27
2023-04-27T18:39:05.244Z,13.38
2023-04-27T18:41:32.207Z,16.33
2023-04-27T18:44:06.041Z,16.13
2023-04-27T18:46:33.132Z,17.75
2023-04-27T18:49:00.945Z,20.77
2023-04-27T18:51:29.038Z,17.23
2023-04-27T18:53:56.348Z,17.40
2023-04-27T18:56:23.334Z,18.13
2023-04-27T18:58:50.165Z,21.90
2023-04-27T19:01:22.022Z,16.55
2023-04-27T19:03:48.790Z,17.83
2023-04-27T19:06:15.846Z,19.13
2023-04-27T19:08:43.574Z,19.02
2023-04-27T19:11:10.844Z,20.15
2023-04-27T19:13:37.856Z,19.00
2023-04-27T19:16:05.219Z,20.65
2023-04-27T19:18:31.770Z,20.85
2023-04-27T19:20:58.567Z,21.50
2023-04-27T19:23:25.152Z,21.38
2023-04-27T19:25:51.838Z,22.08
2023-04-27T19:28:21.697Z,25.70
2023-04-27T19:30:57.347Z,17.75
2023-04-27T19:33:23.828Z,17.33
2023-04-27T19:35:50.500Z,19.25
2023-04-27T19:38:16.976Z,20.88
2023-04-27T19:40:43.479Z,19.00
2023-04-27T19:43:11.845Z,21.42
2023-04-27T19:45:38.958Z,20.10
2023-04-27T19:48:06.639Z,21.38
2023-04-27T19:50:33.498Z,23.58
2023-04-27T19:53:00.063Z,29.73
2023-04-27T19:55:26.637Z,23.13
2023-04-27T19:57:53.127Z,20.67
2023-04-27T20:00:19.892Z,20.00
2023-04-27T20:02:46.634Z,17.60
2023-04-27T20:05:13.707Z,18.45
2023-04-27T20:07:40.945Z,18.98
2023-04-27T20:10:07.730Z,20.73
2023-04-27T20:15:05.233Z,18.90
2023-04-27T20:17:31.961Z,20.35
2023-04-27T20:19:58.431Z,15.75
2023-04-27T20:22:24.990Z,22.65
2023-04-27T20:24:51.530Z,15.73
2023-04-27T20:27:18.104Z,17.45
2023-04-27T20:29:46.539Z,21.10
2023-04-27T20:32:13.314Z,17.85
2023-04-27T20:34:39.818Z,18.00
2023-04-27T20:37:06.299Z,17.45
2023-04-27T20:39:32.837Z,16.67
2023-04-27T20:42:00.134Z,21.15
2023-04-27T20:44:26.826Z,21.15
2023-04-27T20:46:53.338Z,16.27
2023-04-27T20:49:31.926Z,19.52
2023-04-27T20:52:01.532Z,19.50
2023-04-27T20:54:28.059Z,19.00
2023-04-27T20:56:54.492Z,18.77
2023-04-27T20:59:21.007Z,18.90
2023-04-27T21:01:47.510Z,15.55
2023-04-27T21:04:14.348Z,19.95
2023-04-27T21:06:41.713Z,18.88
2023-04-27T21:09:08.193Z,15.45
2023-04-27T21:11:34.903Z,17.83
2023-04-27T21:14:01.423Z,18.88
2023-04-27T21:16:27.976Z,19.42
2023-04-27T21:18:54.477Z,18.30
2023-04-27T21:21:22.095Z,18.55
2023-04-27T21:23:54.402Z,18.88
2023-04-27T21:26:27.443Z,17.63
2023-04-27T21:28:53.955Z,18.60
2023-04-27T21:31:20.884Z,17.67
2023-04-27T21:33:47.512Z,18.50
2023-04-27T21:36:13.955Z,18.58
2023-04-27T21:38:40.423Z,15.25
2023-04-27T21:41:07.496Z,17.38
2023-04-27T21:43:34.000Z,19.17
2023-04-27T21:46:00.690Z,18.42
2023-04-27T21:48:27.244Z,19.35
2023-04-27T21:50:53.707Z,16.55
2023-04-27T21:53:20.298Z,19.90
2023-04-27T21:55:46.772Z,17.45
2023-04-27T21:58:13.225Z,20.70
2023-04-27T22:00:39.701Z,17.80
2023-04-27T22:03:06.336Z,19.42
2023-04-27T22:05:33.502Z,16.73
2023-04-27T22:08:00.029Z,17.33
2023-04-27T22:10:26.560Z,18.88
2023-04-27T22:12:53.000Z,21.52
2023-04-27T22:15:20.315Z,16.35
2023-04-27T22:17:47.199Z,22.73
2023-04-27T22:20:14.375Z,15.70
2023-04-27T22:22:41.199Z,19.02
2023-04-27T22:25:08.233Z,22.42
2023-04-27T22:27:41.952Z,20.27
2023-04-27T22:30:11.493Z,17.15
2023-04-27T22:32:38.036Z,19.58
2023-04-27T22:35:08.645Z,24.95
2023-04-27T22:37:37.234Z,17.63
2023-04-27T22:40:05.887Z,17.67
2023-04-27T22:42:32.424Z,19.20
2023-04-27T22:44:58.883Z,17.73
2023-04-27T22:49:54.530Z,19.35
2023-04-27T22:52:21.838Z,17.10
2023-04-27T22:54:48.317Z,20.27
2023-04-27T22:57:14.868Z,19.95
2023-04-27T22:59:41.475Z,17.63
2023-04-27T23:02:08.017Z,17.10
2023-04-27T23:04:34.491Z,19.85
2023-04-27T23:07:01.059Z,19.90
2023-04-27T23:09:27.720Z,16.63
2023-04-27T23:11:54.874Z,17.75
2023-04-27T23:14:21.407Z,19.45
2023-04-27T23:16:47.885Z,16.35
2023-04-27T23:19:14.541Z,17.20
2023-04-27T23:21:41.275Z,21.38
2023-04-27T23:24:07.793Z,18.67
2023-04-27T23:26:34.291Z,17.27
2023-04-27T23:29:00.762Z,20.30
2023-04-27T23:31:27.651Z,18.02
2023-04-27T23:33:54.168Z,20.95
2023-04-27T23:36:21.071Z,20.60
2023-04-27T23:38:47.543Z,25.13
2023-04-27T23:41:14.075Z,19.00
2023-04-27T23:43:40.510Z,21.40
2023-04-27T23:46:07.176Z,18.70
2023-04-27T23:48:33.658Z,19.95
2023-04-27T23:51:01.149Z,20.95
2023-04-27T23:53:28.232Z,21.05
2023-04-27T23:55:55.306Z,23.15
2023-04-27T23:58:23.901Z,18.45
